Provincetown II — WYQ8368 — position and weather

sailwx.info

Track history (hours):
 
Tides and Currents Weather Stations Pressure Air Temp Water Temp Dewpoint Dewpoint Depression Visibility Wind Speed Wind Dir Waves Ship Positions

Provincetown II

Owner: BAY STATE MARINE CORP, BOSTON, MA. More information available from US FCC via Universal Licensing System and Coast Guard Vessel Documentation Center.

Last reported at 2017-Jun-25 01:50 UTC. Time now 2017-Jun-27 05:14 UTC.
Position N 42°21' W 071°02'.

Length 64 m; draft 2 m.

Type: Passenger vessel. MMSI: 376325010.

Date/timePositionNaut miles runAvg speedWind from/ knotsBaromVisibWave heightAir tempDewpointWater temp
2017-Jun-25 01:50N 42°21' W 071°02'2 5.4
2017-Jun-25 01:30N 42°20' W 071°00'3 5.8
2017-Jun-25 01:00N 42°20' W 070°56'1 1.8
2017-Jun-25 00:30N 42°19' W 070°56'2 3.4
2017-Jun-25 00:01N 42°20' W 070°58'3 5.3
2017-Jun-24 23:31N 42°21' W 071°02'1 1.4
2017-Jun-24 23:00N 42°21' W 071°02'0 0.0
2017-Jun-24 22:30N 42°21' W 071°02'0 0.0
2017-Jun-24 22:00N 42°21' W 071°02'0 0.0
2017-Jun-24 21:30N 42°21' W 071°02'0 0.0
2017-Jun-24 21:00N 42°21' W 071°02'0 0.0
2017-Jun-24 20:30N 42°21' W 071°02'0 0.0
2017-Jun-24 20:00N 42°21' W 071°02'0 0.0
2017-Jun-24 19:30N 42°21' W 071°02'0 0.0
2017-Jun-24 18:58N 42°21' W 071°02'0 0.0
2017-Jun-24 18:25N 42°21' W 071°02'0 0.0
2017-Jun-24 17:55N 42°21' W 071°02'0 0.0
2017-Jun-24 17:28N 42°21' W 071°02'0 0.0
2017-Jun-24 16:58N 42°21' W 071°02'0 0.0
2017-Jun-24 16:28N 42°21' W 071°02'0 0.0
2017-Jun-24 15:58N 42°21' W 071°02'0 0.0
2017-Jun-24 15:28N 42°21' W 071°02'0 0.0
2017-Jun-24 14:58N 42°21' W 071°02'0 0.0
2017-Jun-24 13:55N 42°21' W 071°02'0 0.0
2017-Jun-24 13:28N 42°21' W 071°02'0 0.0
2017-Jun-24 12:55N 42°21' W 071°02'0 0.0
2017-Jun-24 12:28N 42°21' W 071°02'0 0.0
2017-Jun-24 11:58N 42°21' W 071°02'0 0.0
2017-Jun-24 11:28N 42°21' W 071°02'0 0.0
2017-Jun-24 10:58N 42°21' W 071°02'0 0.0
2017-Jun-24 10:28N 42°21' W 071°02'0 0.0
2017-Jun-24 09:58N 42°21' W 071°02'0 0.0
2017-Jun-24 09:28N 42°21' W 071°02'0 0.0
2017-Jun-24 08:58N 42°21' W 071°02'0 0.0
2017-Jun-24 08:25N 42°21' W 071°02'0 0.0
2017-Jun-24 07:58N 42°21' W 071°02'0 0.0
2017-Jun-24 07:28N 42°21' W 071°02'0 0.0
2017-Jun-24 06:55N 42°21' W 071°02'0 0.0
2017-Jun-24 06:25N 42°21' W 071°02'0 0.0
2017-Jun-24 05:58N 42°21' W 071°02'0 0.0
2017-Jun-24 05:28N 42°21' W 071°02'0 0.0
2017-Jun-24 04:58N 42°21' W 071°02'0 0.0
2017-Jun-24 04:28N 42°21' W 071°02'0 0.0
2017-Jun-24 03:58N 42°21' W 071°02'0 0.0
2017-Jun-24 03:28N 42°21' W 071°02'0 0.0
2017-Jun-24 02:59N 42°21' W 071°02'0 0.0
2017-Jun-24 02:29N 42°21' W 071°02'1 2.6
2017-Jun-24 02:00N 42°21' W 071°01'3 6.0
2017-Jun-24 01:30N 42°20' W 070°57'1 2.3
2017-Jun-24 01:00N 42°19' W 070°57'2 4.0
2017-Jun-24 00:30N 42°20' W 070°59'3 5.1
2017-Jun-24 00:00N 42°21' W 071°02'0 0.6
2017-Jun-23 23:27N 42°21' W 071°02'0 0.0
2017-Jun-23 22:57N 42°21' W 071°02'0 0.0
2017-Jun-23 22:30N 42°21' W 071°02'0 0.0
2017-Jun-23 01:47N 42°21' W 071°02'2 7.0
2017-Jun-23 01:30N 42°20' W 071°00'3 7.0
2017-Jun-23 01:00N 42°19' W 070°56'1 1.7
2017-Jun-23 00:30N 42°19' W 070°55'3 5.0
2017-Jun-23 00:00N 42°20' W 070°58'2 3.8
2017-Jun-22 23:30N 42°20' W 071°00'2 3.7
2017-Jun-22 22:59N 42°21' W 071°02'0 0.0
2017-Jun-22 22:29N 42°21' W 071°02'  
2017-Jun-18 02:47N 42°21' W 071°02'1 5.3
2017-Jun-18 02:30N 42°21' W 071°01'2 4.6
2017-Jun-18 02:00N 42°20' W 070°57'1 1.9
2017-Jun-18 01:30N 42°20' W 070°59'3 5.7
2017-Jun-18 01:00N 42°21' W 071°02'1 2.2
2017-Jun-18 00:31N 42°22' W 071°03'1 0.0
2017-Jun-17 02:17N 42°22' W 071°03'1 4.3
2017-Jun-17 02:01N 42°21' W 071°01'0 0.1
2017-Jun-17 01:30N 42°21' W 071°01'2 3.5
2017-Jun-17 01:01N 42°20' W 070°59'2 3.7
2017-Jun-17 00:30N 42°20' W 070°57'3 5.7
2017-Jun-17 00:00N 42°20' W 071°00'2 3.0
2017-Jun-16 23:28N 42°21' W 071°02'0 0.0
2017-Jun-16 22:55N 42°21' W 071°02'0 0.0
2017-Jun-16 22:28N 42°21' W 071°02'0 0.0
2017-Jun-16 00:19N 42°21' W 071°02'2 6.4
2017-Jun-16 00:00N 42°20' W 070°60'2 4.7
2017-Jun-15 23:30N 42°20' W 070°57'3 6.1
2017-Jun-15 23:00N 42°20' W 071°01'3 5.3
2017-Jun-15 22:30N 42°22' W 071°03'1 2.2
2017-Jun-15 21:55N 42°21' W 071°02'0 0.0
2017-Jun-15 21:28N 42°21' W 071°02'  
Track history (hours):
 
Tides and Currents Weather Stations Pressure Air Temp Water Temp Dewpoint Dewpoint Depression Visibility Wind Speed Wind Dir Waves Ship Positions

Provincetown II

Owner: BAY STATE MARINE CORP, BOSTON, MA. More information available from US FCC via Universal Licensing System and Coast Guard Vessel Documentation Center.

Last reported at 2017-Jun-25 01:50 UTC. Time now 2017-Jun-27 05:14 UTC.
Position N 42°21' W 071°02'.

Length 64 m; draft 2 m.

Type: Passenger vessel. MMSI: 376325010.

Date/timePositionNaut miles runAvg speedWind from/ knotsBaromVisibWave heightAir tempDewpointWater temp
2017-Jun-25 01:50N 42°21' W 071°02'2 5.4
2017-Jun-25 01:30N 42°20' W 071°00'3 5.8
2017-Jun-25 01:00N 42°20' W 070°56'1 1.8
2017-Jun-25 00:30N 42°19' W 070°56'2 3.4
2017-Jun-25 00:01N 42°20' W 070°58'3 5.3
2017-Jun-24 23:31N 42°21' W 071°02'1 1.4
2017-Jun-24 23:00N 42°21' W 071°02'0 0.0
2017-Jun-24 22:30N 42°21' W 071°02'0 0.0
2017-Jun-24 22:00N 42°21' W 071°02'0 0.0
2017-Jun-24 21:30N 42°21' W 071°02'0 0.0
2017-Jun-24 21:00N 42°21' W 071°02'0 0.0
2017-Jun-24 20:30N 42°21' W 071°02'0 0.0
2017-Jun-24 20:00N 42°21' W 071°02'0 0.0
2017-Jun-24 19:30N 42°21' W 071°02'0 0.0
2017-Jun-24 18:58N 42°21' W 071°02'0 0.0
2017-Jun-24 18:25N 42°21' W 071°02'0 0.0
2017-Jun-24 17:55N 42°21' W 071°02'0 0.0
2017-Jun-24 17:28N 42°21' W 071°02'0 0.0
2017-Jun-24 16:58N 42°21' W 071°02'0 0.0
2017-Jun-24 16:28N 42°21' W 071°02'0 0.0
2017-Jun-24 15:58N 42°21' W 071°02'0 0.0
2017-Jun-24 15:28N 42°21' W 071°02'0 0.0
2017-Jun-24 14:58N 42°21' W 071°02'0 0.0
2017-Jun-24 13:55N 42°21' W 071°02'0 0.0
2017-Jun-24 13:28N 42°21' W 071°02'0 0.0
2017-Jun-24 12:55N 42°21' W 071°02'0 0.0
2017-Jun-24 12:28N 42°21' W 071°02'0 0.0
2017-Jun-24 11:58N 42°21' W 071°02'0 0.0
2017-Jun-24 11:28N 42°21' W 071°02'0 0.0
2017-Jun-24 10:58N 42°21' W 071°02'0 0.0
2017-Jun-24 10:28N 42°21' W 071°02'0 0.0
2017-Jun-24 09:58N 42°21' W 071°02'0 0.0
2017-Jun-24 09:28N 42°21' W 071°02'0 0.0
2017-Jun-24 08:58N 42°21' W 071°02'0 0.0
2017-Jun-24 08:25N 42°21' W 071°02'0 0.0
2017-Jun-24 07:58N 42°21' W 071°02'0 0.0
2017-Jun-24 07:28N 42°21' W 071°02'0 0.0
2017-Jun-24 06:55N 42°21' W 071°02'0 0.0
2017-Jun-24 06:25N 42°21' W 071°02'0 0.0
2017-Jun-24 05:58N 42°21' W 071°02'0 0.0
2017-Jun-24 05:28N 42°21' W 071°02'0 0.0
2017-Jun-24 04:58N 42°21' W 071°02'0 0.0
2017-Jun-24 04:28N 42°21' W 071°02'0 0.0
2017-Jun-24 03:58N 42°21' W 071°02'0 0.0
2017-Jun-24 03:28N 42°21' W 071°02'0 0.0
2017-Jun-24 02:59N 42°21' W 071°02'0 0.0
2017-Jun-24 02:29N 42°21' W 071°02'1 2.6
2017-Jun-24 02:00N 42°21' W 071°01'3 6.0
2017-Jun-24 01:30N 42°20' W 070°57'1 2.3
2017-Jun-24 01:00N 42°19' W 070°57'2 4.0
2017-Jun-24 00:30N 42°20' W 070°59'3 5.1
2017-Jun-24 00:00N 42°21' W 071°02'0 0.6
2017-Jun-23 23:27N 42°21' W 071°02'0 0.0
2017-Jun-23 22:57N 42°21' W 071°02'0 0.0
2017-Jun-23 22:30N 42°21' W 071°02'0 0.0
2017-Jun-23 01:47N 42°21' W 071°02'2 7.0
2017-Jun-23 01:30N 42°20' W 071°00'3 7.0
2017-Jun-23 01:00N 42°19' W 070°56'1 1.7
2017-Jun-23 00:30N 42°19' W 070°55'3 5.0
2017-Jun-23 00:00N 42°20' W 070°58'2 3.8
2017-Jun-22 23:30N 42°20' W 071°00'2 3.7
2017-Jun-22 22:59N 42°21' W 071°02'0 0.0
2017-Jun-22 22:29N 42°21' W 071°02'  
2017-Jun-18 02:47N 42°21' W 071°02'1 5.3
2017-Jun-18 02:30N 42°21' W 071°01'2 4.6
2017-Jun-18 02:00N 42°20' W 070°57'1 1.9
2017-Jun-18 01:30N 42°20' W 070°59'3 5.7
2017-Jun-18 01:00N 42°21' W 071°02'1 2.2
2017-Jun-18 00:31N 42°22' W 071°03'1 0.0
2017-Jun-17 02:17N 42°22' W 071°03'1 4.3
2017-Jun-17 02:01N 42°21' W 071°01'0 0.1
2017-Jun-17 01:30N 42°21' W 071°01'2 3.5
2017-Jun-17 01:01N 42°20' W 070°59'2 3.7
2017-Jun-17 00:30N 42°20' W 070°57'3 5.7
2017-Jun-17 00:00N 42°20' W 071°00'2 3.0
2017-Jun-16 23:28N 42°21' W 071°02'0 0.0
2017-Jun-16 22:55N 42°21' W 071°02'0 0.0
2017-Jun-16 22:28N 42°21' W 071°02'0 0.0
2017-Jun-16 00:19N 42°21' W 071°02'2 6.4
2017-Jun-16 00:00N 42°20' W 070°60'2 4.7
2017-Jun-15 23:30N 42°20' W 070°57'3 6.1
2017-Jun-15 23:00N 42°20' W 071°01'3 5.3
2017-Jun-15 22:30N 42°22' W 071°03'1 2.2
2017-Jun-15 21:55N 42°21' W 071°02'0 0.0
2017-Jun-15 21:28N 42°21' W 071°02'  

Dump ship's entire track history